Ana Sayfa
METAR-TAF:

METAR-TAF

Havaalanları :

Grosse Ile Municipal Airport

Detroit / Grosse Ile, Michigan, Amerika Birleşik Devletleri

Enlem: 42-05-55N, Boylam: 083-09-40W, yükseklik: 180 m

Güncel hava durumu gözlemi

Rapor saat 07:56 UTC de 23 dakika önce yapıldı.
Rüzgar batıdan 6 kt
Sıcaklık 8°C
Nem 66%
Basınç 1009 hPa
Görüş mesafesi: 16.1 km
3000 ft yükseklikte parçalı çok bulutlu
3700 ft yükseklikte çok bulutlu

METAR: KONZ 300756Z AUTO 28006KT 10SM BKN030 OVC037 08/02 A2980 RMK AO2 T00750021

Saat: 04:19 (08:19 UTC)


TAF: eksik

4.000'den fazla havaalanı için hava durumu gözlemleri ve tahminleri (METAR ve TAF raporları).

Kullanılabilir istasyonlar harita üzerinde sarı ve kırmızı noktalarla gösterilir.

İstasyonun adını görmek için fareyi noktanın üzerinde gezdirin.

Sonrasında hava gözlem ve tahminlerini görmek için tıklayın.

Haritayı değiştirmek için: yaklaştırmak için siyah artı işaretli yeşil düğmeye ve uzaklaştırmak için de eksi işaretli düğmeye hızla tıklayın; bitişik haritalar için yeşil okları kullanın.


METAR-TAF: